Time;durP1;ratioP1;P1;durP2;ratioP2;P2;SDS_P1;SDS_P2;PMS_P1;PMS_P2;Temp;Humidity;BMP_temperature;BMP_pressure;BME280_temperature;BME280_humidity;BME280_pressure;Samples;Min_cycle;Max_cycle;Signal;HPM_P1;HPM_P2
2021/12/23 00:01:30;;;;;;;;;;;;;;;15.62;41.82;101706.97;5005463;28;20364;-57
2021/12/23 00:03:57;;;;;;;;;;;;;;;15.60;41.96;101711.59;5004793;28;19922;-57
2021/12/23 00:06:23;;;;;;;;;;;;;;;15.58;41.85;101716.19;5006468;28;19925;-57
2021/12/23 00:08:49;;;;;;;;;;;;;;;15.58;41.96;101724.19;5003684;28;19932;-56
2021/12/23 00:11:16;;;;;;;;;;;;;;;15.57;41.80;101722.50;5005066;28;20344;-56
2021/12/23 00:13:50;;;;;;;;;;;;;;;15.55;42.08;101725.25;4999883;28;19940;-56
2021/12/23 00:16:19;;;;;;;;;;;;;;;15.56;42.09;101707.44;5004866;28;20275;-57
2021/12/23 00:18:56;;;;;;;;;;;;;;;15.54;41.88;101706.69;5004390;28;19972;-56
2021/12/23 00:24:07;;;;;;;;;;;;;;;15.54;42.08;101730.75;5005198;28;19921;-57
2021/12/23 00:26:33;;;;;;;;;;;;;;;15.53;42.28;101731.72;5004079;28;19940;-57
2021/12/23 00:29:00;;;;;;;;;;;;;;;15.53;42.08;101729.03;5004514;28;19935;-57
2021/12/23 00:31:26;;;;;;;;;;;;;;;15.52;41.54;101724.66;5006671;28;19932;-56
2021/12/23 00:33:53;;;;;;;;;;;;;;;15.51;42.29;101709.59;5006277;28;20026;-57
2021/12/23 00:36:19;;;;;;;;;;;;;;;15.49;41.96;101716.88;5005725;28;19928;-57
2021/12/23 00:38:53;;;;;;;;;;;;;;;15.49;42.36;101722.22;5005219;28;20367;-56
2021/12/23 00:41:20;;;;;;;;;;;;;;;15.48;42.44;101704.50;5006772;28;19948;-56
2021/12/23 00:43:47;;;;;;;;;;;;;;;15.47;42.39;101702.78;5000896;28;19935;-57
2021/12/23 00:46:13;;;;;;;;;;;;;;;15.46;42.41;101696.56;5004433;28;19930;-57
2021/12/23 00:48:41;;;;;;;;;;;;;;;15.46;42.23;101690.38;5007762;28;19925;-56
2021/12/23 00:51:07;;;;;;;;;;;;;;;15.44;42.38;101689.66;5004772;28;19922;-56
2021/12/23 00:53:39;;;;;;;;;;;;;;;15.43;42.22;101687.94;5004088;28;19921;-57
2021/12/23 00:56:06;;;;;;;;;;;;;;;15.43;42.33;101687.94;5004698;28;19929;-56
2021/12/23 00:58:32;;;;;;;;;;;;;;;15.42;41.91;101699.59;5001836;28;20228;-57
2021/12/23 01:01:00;;;;;;;;;;;;;;;15.41;41.53;101682.72;5004421;28;19925;-56
2021/12/23 01:03:27;;;;;;;;;;;;;;;15.40;42.21;101683.69;5009225;28;19921;-57
2021/12/23 01:05:54;;;;;;;;;;;;;;;15.40;42.42;101686.38;5009704;28;19940;-57
2021/12/23 01:08:20;;;;;;;;;;;;;;;15.38;42.46;101687.44;5005503;28;19928;-57
2021/12/23 01:10:49;;;;;;;;;;;;;;;15.38;41.78;101660.72;5008479;28;20221;-56
2021/12/23 01:13:18;;;;;;;;;;;;;;;15.36;41.67;101660.88;5002581;28;19929;-57
2021/12/23 01:16:00;;;;;;;;;;;;;;;15.37;41.55;101672.41;5002835;28;19930;-56
2021/12/23 01:18:30;;;;;;;;;;;;;;;15.35;41.95;101683.16;5003745;28;19926;-57
2021/12/23 01:21:04;;;;;;;;;;;;;;;15.33;41.24;101673.59;5005328;28;19928;-56
2021/12/23 01:23:34;;;;;;;;;;;;;;;15.32;41.58;101656.72;5005178;28;19922;-57
2021/12/23 01:26:01;;;;;;;;;;;;;;;15.31;42.09;101655.84;5004506;28;19932;-56
2021/12/23 01:28:27;;;;;;;;;;;;;;;15.30;42.32;101645.28;5001358;28;19929;-57
2021/12/23 01:30:54;;;;;;;;;;;;;;;15.28;42.33;101634.72;5002819;28;19929;-57
2021/12/23 01:33:21;;;;;;;;;;;;;;;15.28;42.56;101632.06;5002848;28;19929;-57
2021/12/23 01:35:50;;;;;;;;;;;;;;;15.27;42.20;101619.66;5003789;28;19935;-57
2021/12/23 01:38:16;;;;;;;;;;;;;;;15.26;41.56;101625.97;5008026;28;19969;-57
2021/12/23 01:40:46;;;;;;;;;;;;;;;15.25;42.18;101594.91;5005410;28;19925;-56
2021/12/23 01:43:13;;;;;;;;;;;;;;;15.23;41.63;101596.81;5002740;28;19936;-56
2021/12/23 01:45:44;;;;;;;;;;;;;;;15.22;41.48;101604.97;5005136;28;20320;-56
2021/12/23 01:48:11;;;;;;;;;;;;;;;15.21;41.81;101611.28;5007984;28;20189;-57
2021/12/23 01:50:39;;;;;;;;;;;;;;;15.20;41.20;101605.09;5004589;28;20220;-56
2021/12/23 01:53:05;;;;;;;;;;;;;;;15.18;41.54;101615.00;5003341;28;22348;-56
2021/12/23 01:55:32;;;;;;;;;;;;;;;15.18;41.35;101612.34;5006332;28;19929;-56
2021/12/23 01:57:58;;;;;;;;;;;;;;;15.17;41.60;101607.13;5001999;28;19936;-57
2021/12/23 02:00:26;;;;;;;;;;;;;;;15.15;42.18;101599.22;5002987;28;19921;-56
2021/12/23 02:02:53;;;;;;;;;;;;;;;15.14;41.49;101596.69;5006336;28;19929;-56
2021/12/23 02:05:20;;;;;;;;;;;;;;;15.12;41.71;101591.47;5003051;28;20039;-56
2021/12/23 02:07:47;;;;;;;;;;;;;;;15.10;41.52;101598.72;5002158;28;19937;-56
2021/12/23 02:10:13;;;;;;;;;;;;;;;15.09;42.12;101599.69;5006752;28;19929;-56
2021/12/23 02:12:41;;;;;;;;;;;;;;;15.07;42.03;101601.63;5002737;28;19925;-57
2021/12/23 02:15:08;;;;;;;;;;;;;;;15.08;41.69;101602.50;5006093;28;19926;-57
2021/12/23 02:17:36;;;;;;;;;;;;;;;15.05;41.78;101601.75;5002069;28;20623;-57
2021/12/23 02:20:03;;;;;;;;;;;;;;;15.03;41.31;101597.47;5002315;28;19936;-57
2021/12/23 02:22:30;;;;;;;;;;;;;;;15.03;41.15;101570.78;5002947;28;19929;-57
2021/12/23 02:24:56;;;;;;;;;;;;;;;15.01;41.59;101554.03;5005370;28;20212;-57
2021/12/23 02:27:22;;;;;;;;;;;;;;;14.97;41.50;101556.09;5002190;28;20019;-56
2021/12/23 02:29:49;;;;;;;;;;;;;;;14.96;40.94;101548.22;4999885;28;19929;-56
2021/12/23 02:32:15;;;;;;;;;;;;;;;14.95;40.81;101535.81;5003569;28;19948;-57
2021/12/23 02:34:42;;;;;;;;;;;;;;;14.92;40.85;101531.56;5001918;28;19925;-57
2021/12/23 02:37:08;;;;;;;;;;;;;;;14.92;40.90;101533.41;5002408;28;19935;-57
2021/12/23 02:39:35;;;;;;;;;;;;;;;14.91;40.91;101545.03;5003207;28;19928;-57
2021/12/23 02:42:02;;;;;;;;;;;;;;;14.92;41.16;101536.91;5003723;28;19926;-57
2021/12/23 02:44:29;;;;;;;;;;;;;;;14.96;41.97;101527.72;5003505;28;20353;-57
2021/12/23 02:46:55;;;;;;;;;;;;;;;15.05;41.44;101528.81;5000964;28;19925;-58
2021/12/23 02:49:22;;;;;;;;;;;;;;;15.13;41.11;101539.75;5006811;28;20217;-57
2021/12/23 02:51:48;;;;;;;;;;;;;;;15.22;40.92;101527.50;5003803;28;20021;-58
2021/12/23 02:54:14;;;;;;;;;;;;;;;15.31;40.62;101518.78;5003736;28;20012;-58
2021/12/23 02:56:41;;;;;;;;;;;;;;;15.42;41.51;101520.63;5005317;28;19936;-57
2021/12/23 02:59:07;;;;;;;;;;;;;;;15.51;40.96;101512.72;5005184;28;19929;-57
2021/12/23 03:01:35;;;;;;;;;;;;;;;15.61;40.90;101512.88;5008371;28;19966;-57
2021/12/23 03:04:02;;;;;;;;;;;;;;;15.71;40.12;101513.84;5007953;28;19948;-57
2021/12/23 03:06:29;;;;;;;;;;;;;;;15.79;39.89;101505.22;5002565;28;19925;-57
2021/12/23 03:08:56;;;;;;;;;;;;;;;15.86;39.49;101506.44;5006628;28;20228;-57
2021/12/23 03:11:24;;;;;;;;;;;;;;;15.91;40.30;101498.91;5007583;28;20353;-57
2021/12/23 03:13:50;;;;;;;;;;;;;;;15.95;39.86;101519.06;5005355;28;20319;-57
2021/12/23 03:16:22;;;;;;;;;;;;;;;15.99;39.48;101500.94;5007877;28;19928;-57
2021/12/23 03:18:48;;;;;;;;;;;;;;;16.02;39.40;101484.66;5005938;28;19922;-57
2021/12/23 03:21:15;;;;;;;;;;;;;;;16.03;39.13;101478.34;5002262;28;19931;-57
2021/12/23 03:23:42;;;;;;;;;;;;;;;16.04;39.03;101470.22;5006768;28;19929;-57
2021/12/23 03:26:09;;;;;;;;;;;;;;;16.04;38.63;101470.22;5010220;28;19941;-56
2021/12/23 03:28:35;;;;;;;;;;;;;;;16.04;38.75;101469.38;5005941;28;19935;-57
2021/12/23 03:31:03;;;;;;;;;;;;;;;16.03;39.47;101454.28;5007697;28;19925;-56
2021/12/23 03:33:30;;;;;;;;;;;;;;;16.00;38.64;101450.03;5010385;28;19948;-56
2021/12/23 03:35:56;;;;;;;;;;;;;;;15.98;38.62;101457.31;5006735;28;19996;-57
2021/12/23 03:38:24;;;;;;;;;;;;;;;15.96;38.49;101456.63;4999188;28;19929;-57
2021/12/23 03:40:50;;;;;;;;;;;;;;;15.94;38.74;101441.66;5006163;28;19928;-56
2021/12/23 03:43:17;;;;;;;;;;;;;;;15.92;38.80;101432.91;5008667;28;19921;-57
2021/12/23 03:45:44;;;;;;;;;;;;;;;15.90;39.13;101424.19;5003903;28;19925;-57
2021/12/23 03:48:11;;;;;;;;;;;;;;;15.87;38.83;101416.41;5007938;28;20437;-57
2021/12/23 03:50:38;;;;;;;;;;;;;;;15.85;38.93;101407.69;5005966;28;19925;-56
2021/12/23 03:53:05;;;;;;;;;;;;;;;15.84;39.21;101422.00;5003689;28;19921;-56
2021/12/23 03:55:31;;;;;;;;;;;;;;;15.81;39.42;101449.84;5003583;28;20337;-57
2021/12/23 03:57:58;;;;;;;;;;;;;;;15.79;39.14;101467.81;5002199;28;19929;-56
2021/12/23 04:00:24;;;;;;;;;;;;;;;15.77;40.18;101480.47;5005178;28;20389;-56
2021/12/23 04:02:51;;;;;;;;;;;;;;;15.73;39.42;101474.50;5001360;28;20309;-56
2021/12/23 04:05:19;;;;;;;;;;;;;;;15.71;39.38;101495.16;5005359;28;20006;-57
2021/12/23 04:07:45;;;;;;;;;;;;;;;15.69;39.71;101491.75;5003716;28;19925;-56
2021/12/23 04:10:13;;;;;;;;;;;;;;;15.68;40.30;101479.38;5006783;28;20016;-57
2021/12/23 04:12:40;;;;;;;;;;;;;;;15.69;40.41;101467.72;5003923;28;19925;-57
2021/12/23 04:15:07;;;;;;;;;;;;;;;15.72;40.06;101475.50;5004889;28;20829;-57
2021/12/23 04:17:36;;;;;;;;;;;;;;;15.77;40.20;101481.31;5004636;28;19921;-57
2021/12/23 04:20:15;;;;;;;;;;;;;;;15.83;39.83;101473.75;5007472;28;20453;-57
2021/12/23 04:22:42;;;;;;;;;;;;;;;15.92;40.48;101470.34;5003025;28;19952;-57
2021/12/23 04:25:09;;;;;;;;;;;;;;;15.98;39.50;101465.34;5001313;28;19929;-57
2021/12/23 04:27:35;;;;;;;;;;;;;;;16.07;39.53;101471.75;5002970;28;20417;-56
2021/12/23 04:30:03;;;;;;;;;;;;;;;16.14;40.35;101464.94;5005147;28;19963;-56
2021/12/23 04:32:30;;;;;;;;;;;;;;;16.21;39.33;101470.66;5003026;28;19935;-56
2021/12/23 04:34:56;;;;;;;;;;;;;;;16.27;39.93;101478.16;5007188;28;19928;-57
2021/12/23 04:37:22;;;;;;;;;;;;;;;16.35;39.49;101458.78;5006062;28;19929;-57
2021/12/23 04:39:49;;;;;;;;;;;;;;;16.40;40.13;101441.41;5005704;28;19921;-57
2021/12/23 04:42:15;;;;;;;;;;;;;;;16.45;39.61;101433.00;5003522;28;19921;-57
2021/12/23 04:44:42;;;;;;;;;;;;;;;16.50;39.54;101430.75;5002807;28;19926;-58
2021/12/23 04:47:08;;;;;;;;;;;;;;;16.54;38.48;101434.88;5003563;28;19925;-57
2021/12/23 04:49:34;;;;;;;;;;;;;;;16.58;39.20;101446.19;5004196;28;19930;-57
2021/12/23 04:52:01;;;;;;;;;;;;;;;16.62;39.24;101428.88;5004622;28;19929;-57
2021/12/23 04:54:27;;;;;;;;;;;;;;;16.66;38.73;101425.81;5006619;28;19929;-57
2021/12/23 04:56:54;;;;;;;;;;;;;;;16.69;39.19;101433.59;5004376;28;19928;-57
2021/12/23 04:59:20;;;;;;;;;;;;;;;16.72;38.75;101425.31;4999338;28;19948;-57
2021/12/23 05:01:47;;;;;;;;;;;;;;;16.74;39.11;101420.69;5003052;28;19929;-57
2021/12/23 05:04:13;;;;;;;;;;;;;;;16.76;39.04;101424.09;5008395;28;19926;-57
2021/12/23 05:06:41;;;;;;;;;;;;;;;16.78;38.38;101402.53;5001125;28;19936;-57
2021/12/23 05:09:07;;;;;;;;;;;;;;;16.77;38.83;101390.13;5006384;28;20012;-57
2021/12/23 05:11:34;;;;;;;;;;;;;;;16.77;38.63;101390.97;5001973;28;19926;-57
2021/12/23 05:14:01;;;;;;;;;;;;;;;16.75;38.35;101390.25;4997103;28;20228;-57
2021/12/23 05:16:27;;;;;;;;;;;;;;;16.74;38.11;101396.59;4999382;28;19922;-57
2021/12/23 05:18:53;;;;;;;;;;;;;;;16.73;38.58;101396.72;5000975;28;20236;-57
2021/12/23 05:21:20;;;;;;;;;;;;;;;16.69;37.97;101382.72;4998252;28;19925;-57
2021/12/23 05:23:46;;;;;;;;;;;;;;;16.66;38.27;101374.94;5000598;28;19936;-57
2021/12/23 05:26:13;;;;;;;;;;;;;;;16.63;38.31;101379.72;5003092;28;19936;-56
2021/12/23 05:28:39;;;;;;;;;;;;;;;16.59;37.94;101362.22;5001031;28;19925;-57
2021/12/23 05:31:06;;;;;;;;;;;;;;;16.55;38.64;101369.66;5004406;28;20313;-57
2021/12/23 05:33:32;;;;;;;;;;;;;;;16.51;38.76;101368.22;5005956;28;19931;-57
2021/12/23 05:35:59;;;;;;;;;;;;;;;16.47;38.66;101362.28;5002497;28;20021;-57
2021/12/23 05:38:25;;;;;;;;;;;;;;;16.43;38.27;101362.69;5004231;28;19964;-57
2021/12/23 05:40:52;;;;;;;;;;;;;;;16.39;38.82;101361.25;5002352;28;19948;-57
2021/12/23 05:43:18;;;;;;;;;;;;;;;16.35;37.95;101346.44;5004963;28;20008;-57
2021/12/23 05:45:45;;;;;;;;;;;;;;;16.31;38.80;101340.50;5005518;28;19929;-57
2021/12/23 05:48:11;;;;;;;;;;;;;;;16.28;38.95;101341.63;5007662;28;19921;-57
2021/12/23 05:50:37;;;;;;;;;;;;;;;16.24;38.48;101333.97;5007336;28;19926;-56
2021/12/23 05:53:04;;;;;;;;;;;;;;;16.20;39.12;101338.75;5004554;28;19921;-56
2021/12/23 05:55:30;;;;;;;;;;;;;;;16.17;38.79;101347.03;5005683;28;19956;-57
2021/12/23 05:57:56;;;;;;;;;;;;;;;16.14;38.67;101343.75;5005116;28;19921;-57
2021/12/23 06:00:25;;;;;;;;;;;;;;;16.12;38.72;101340.34;5006156;28;19925;-56
2021/12/23 06:02:52;;;;;;;;;;;;;;;16.08;39.42;101342.47;5003825;28;19940;-57
2021/12/23 06:05:19;;;;;;;;;;;;;;;16.05;38.75;101345.38;5005609;28;19921;-57
2021/12/23 06:07:45;;;;;;;;;;;;;;;16.02;38.88;101342.97;5006723;28;19927;-57
2021/12/23 06:10:14;;;;;;;;;;;;;;;15.98;38.94;101344.19;5005010;28;20240;-56
2021/12/23 06:12:41;;;;;;;;;;;;;;;15.95;39.78;101342.63;5005224;28;19925;-56
2021/12/23 06:15:07;;;;;;;;;;;;;;;15.93;39.43;101338.38;5004809;28;19929;-57
2021/12/23 06:17:34;;;;;;;;;;;;;;;15.91;39.14;101349.19;5006722;28;20005;-56
2021/12/23 06:20:01;;;;;;;;;;;;;;;15.88;39.55;101353.94;5002196;28;19932;-56
2021/12/23 06:22:27;;;;;;;;;;;;;;;15.84;40.09;101348.03;5004414;28;19921;-56
2021/12/23 06:24:54;;;;;;;;;;;;;;;15.83;39.87;101350.81;5007043;28;20290;-56
2021/12/23 06:27:20;;;;;;;;;;;;;;;15.79;39.41;101340.34;5004529;28;19964;-56
2021/12/23 06:29:47;;;;;;;;;;;;;;;15.77;39.51;101342.31;5010086;28;20128;-56
2021/12/23 06:32:13;;;;;;;;;;;;;;;15.73;40.14;101343.56;5008850;28;20020;-57
2021/12/23 06:34:40;;;;;;;;;;;;;;;15.71;40.66;101333.97;5010399;28;19921;-57
2021/12/23 06:37:06;;;;;;;;;;;;;;;15.68;39.87;101331.56;5009820;28;19921;-57
2021/12/23 06:39:33;;;;;;;;;;;;;;;15.65;40.66;101321.13;5008947;28;20447;-57
2021/12/23 06:41:59;;;;;;;;;;;;;;;15.62;40.15;101330.19;5009537;28;19926;-57
2021/12/23 06:44:26;;;;;;;;;;;;;;;15.60;40.58;101328.59;5009323;28;20323;-57
2021/12/23 06:46:53;;;;;;;;;;;;;;;15.57;40.57;101324.38;5007125;28;19925;-57
2021/12/23 06:49:20;;;;;;;;;;;;;;;15.54;39.94;101335.31;5008817;28;20012;-57
2021/12/23 06:51:46;;;;;;;;;;;;;;;15.53;40.61;101357.66;5011043;28;20039;-57
2021/12/23 06:54:13;;;;;;;;;;;;;;;15.51;40.93;101347.09;5007626;28;19936;-57
2021/12/23 06:56:40;;;;;;;;;;;;;;;15.48;40.85;101344.69;5006899;28;19929;-56
2021/12/23 06:59:06;;;;;;;;;;;;;;;15.47;40.49;101344.78;5003610;28;19921;-57
2021/12/23 07:01:33;;;;;;;;;;;;;;;15.45;40.11;101330.72;5012116;28;19925;-56
2021/12/23 07:04:08;;;;;;;;;;;;;;;15.45;40.94;101331.56;5008565;28;19928;-57
2021/12/23 07:06:36;;;;;;;;;;;;;;;15.46;41.23;101319.06;5007763;28;19921;-57
2021/12/23 07:09:05;;;;;;;;;;;;;;;15.50;41.13;101325.84;5010818;28;19953;-57
2021/12/23 07:11:33;;;;;;;;;;;;;;;15.55;40.49;101319.16;5008611;28;19921;-57
2021/12/23 07:13:59;;;;;;;;;;;;;;;15.63;40.06;101307.84;5008711;28;19925;-58
2021/12/23 07:16:26;;;;;;;;;;;;;;;15.71;40.70;101304.56;5009116;28;19921;-58
2021/12/23 07:18:52;;;;;;;;;;;;;;;15.80;40.38;101309.16;5008900;28;19961;-57
2021/12/23 07:21:18;;;;;;;;;;;;;;;15.89;40.83;101307.53;5008461;28;19976;-58
2021/12/23 07:23:45;;;;;;;;;;;;;;;15.97;40.43;101294.38;5010534;28;19925;-57
2021/12/23 07:26:11;;;;;;;;;;;;;;;16.06;39.69;101293.59;5006731;28;20225;-57
2021/12/23 07:28:38;;;;;;;;;;;;;;;16.13;40.24;101293.94;5004664;28;20209;-57
2021/12/23 07:31:04;;;;;;;;;;;;;;;16.19;40.36;101307.63;5009048;28;19930;-58
2021/12/23 07:33:31;;;;;;;;;;;;;;;16.22;39.76;101309.19;5010578;28;19921;-57
2021/12/23 07:35:57;;;;;;;;;;;;;;;16.25;40.00;101304.44;5008602;28;19974;-58
2021/12/23 07:38:23;;;;;;;;;;;;;;;16.27;39.87;101307.81;5008080;28;19929;-58
2021/12/23 07:40:50;;;;;;;;;;;;;;;16.28;39.17;101305.97;5007158;28;19932;-58
2021/12/23 07:43:44;;;;;;;;;;;;;;;16.29;39.05;101310.38;5011318;28;19925;-57
2021/12/23 07:46:11;;;;;;;;;;;;;;;16.26;38.88;101302.59;5006009;28;19935;-57
2021/12/23 07:48:37;;;;;;;;;;;;;;;16.25;38.90;101304.44;5010052;28;19925;-57
2021/12/23 07:51:04;;;;;;;;;;;;;;;16.23;39.18;101301.03;5006233;28;20202;-57
2021/12/23 07:53:30;;;;;;;;;;;;;;;16.21;39.15;101308.34;5007778;28;19921;-58
2021/12/23 07:56:01;;;;;;;;;;;;;;;16.20;39.74;101295.97;5004412;28;19929;-57
2021/12/23 07:58:28;;;;;;;;;;;;;;;16.17;39.11;101296.22;5007889;28;19925;-57
2021/12/23 08:00:54;;;;;;;;;;;;;;;16.14;39.43;101290.28;5008033;28;19928;-57
2021/12/23 08:03:21;;;;;;;;;;;;;;;16.10;40.02;101284.34;5006971;28;20301;-57
2021/12/23 08:05:48;;;;;;;;;;;;;;;16.07;39.61;101276.56;5006066;28;20318;-58
2021/12/23 08:08:15;;;;;;;;;;;;;;;16.03;40.03;101262.59;5010007;28;20020;-57
2021/12/23 08:10:41;;;;;;;;;;;;;;;16.01;39.38;101253.03;5003949;28;19925;-57
2021/12/23 08:13:07;;;;;;;;;;;;;;;15.97;39.85;101254.28;5007237;28;19928;-57
2021/12/23 08:15:34;;;;;;;;;;;;;;;15.94;39.76;101257.19;5005770;28;20003;-57
2021/12/23 08:18:00;;;;;;;;;;;;;;;15.91;39.18;101252.97;5007104;28;19921;-57
2021/12/23 08:20:28;;;;;;;;;;;;;;;15.89;39.20;101238.03;5007358;28;19921;-57
2021/12/23 08:22:55;;;;;;;;;;;;;;;15.86;39.57;101223.09;5008111;28;20221;-57
2021/12/23 08:25:23;;;;;;;;;;;;;;;15.84;39.63;101224.19;5005870;28;20016;-57
2021/12/23 08:27:49;;;;;;;;;;;;;;;15.79;39.93;101233.44;5006695;28;20016;-57
2021/12/23 08:30:20;;;;;;;;;;;;;;;15.76;39.24;101220.38;5005848;28;19921;-57
2021/12/23 08:32:47;;;;;;;;;;;;;;;15.75;39.99;101217.81;5009279;28;19921;-57
2021/12/23 08:35:14;;;;;;;;;;;;;;;15.71;40.17;101211.88;5008336;28;20021;-57
2021/12/23 08:37:46;;;;;;;;;;;;;;;15.68;40.23;101209.47;5005446;28;20308;-57
2021/12/23 08:40:14;;;;;;;;;;;;;;;15.64;39.58;101200.00;5010417;28;19961;-57
2021/12/23 08:42:40;;;;;;;;;;;;;;;15.61;40.35;101213.59;5002859;28;19925;-57
2021/12/23 08:45:07;;;;;;;;;;;;;;;15.61;39.90;101194.06;5007174;28;19929;-56
2021/12/23 08:47:34;;;;;;;;;;;;;;;15.62;39.46;101193.91;5008723;28;19929;-57
2021/12/23 08:50:03;;;;;;;;;;;;;;;15.64;40.40;101191.09;5006072;28;20321;-57
2021/12/23 08:52:30;;;;;;;;;;;;;;;15.68;40.39;101208.63;5007964;28;19925;-57
2021/12/23 08:54:56;;;;;;;;;;;;;;;15.72;40.17;101204.72;5004329;28;19972;-57
2021/12/23 08:57:23;;;;;;;;;;;;;;;15.74;40.19;101195.59;5006497;28;19931;-57
2021/12/23 08:59:49;;;;;;;;;;;;;;;15.78;39.18;101197.03;5008194;28;19951;-57
2021/12/23 09:02:15;;;;;;;;;;;;;;;15.82;39.79;101197.59;5007147;28;19929;-57
2021/12/23 09:04:42;;;;;;;;;;;;;;;15.86;39.06;101196.38;5006996;28;19929;-57
2021/12/23 09:07:11;;;;;;;;;;;;;;;15.89;39.10;101189.94;5002779;28;19928;-57
2021/12/23 09:09:45;;;;;;;;;;;;;;;15.92;39.13;101184.28;5004375;28;19929;-57
2021/12/23 09:12:12;;;;;;;;;;;;;;;15.94;38.81;101172.50;5006637;28;20008;-57
2021/12/23 09:14:38;;;;;;;;;;;;;;;15.96;38.92;101175.03;5002347;28;20004;-57
2021/12/23 09:17:10;;;;;;;;;;;;;;;15.97;39.58;101160.72;5005146;28;19929;-57
2021/12/23 09:19:36;;;;;;;;;;;;;;;15.98;38.65;101163.25;5005149;28;20295;-57
2021/12/23 09:22:03;;;;;;;;;;;;;;;15.98;39.36;101154.38;5007949;28;19921;-57
2021/12/23 09:24:31;;;;;;;;;;;;;;;15.98;38.50;101138.34;5006839;28;19925;-57
2021/12/23 09:35:00;;;;;;;;;;;;;;;15.94;39.51;101142.25;5004537;28;19925;-57
2021/12/23 09:37:28;;;;;;;;;;;;;;;15.92;38.47;101146.88;5005746;28;20538;-57
2021/12/23 09:39:57;;;;;;;;;;;;;;;15.91;39.21;101139.84;5008169;28;20266;-57
2021/12/23 09:42:25;;;;;;;;;;;;;;;15.89;39.35;101134.63;5007518;28;20007;-58
2021/12/23 09:44:56;;;;;;;;;;;;;;;15.87;38.50;101138.41;5004510;28;19997;-58
2021/12/23 09:47:25;;;;;;;;;;;;;;;15.86;39.30;101128.72;5006706;28;19925;-56
2021/12/23 09:49:51;;;;;;;;;;;;;;;15.84;39.25;101133.31;5003414;28;20267;-56
2021/12/23 09:52:18;;;;;;;;;;;;;;;15.81;38.56;101134.44;5007346;28;20907;-57
2021/12/23 09:54:44;;;;;;;;;;;;;;;15.80;38.60;101122.06;5004832;28;20571;-57
2021/12/23 09:57:12;;;;;;;;;;;;;;;15.78;38.86;101116.00;5005538;28;20270;-57
2021/12/23 09:59:40;;;;;;;;;;;;;;;15.76;38.85;101113.47;5006186;28;20336;-57
2021/12/23 10:02:07;;;;;;;;;;;;;;;15.75;39.58;101118.94;5008806;28;19944;-56
2021/12/23 10:04:34;;;;;;;;;;;;;;;15.73;38.62;101115.56;5013221;28;19935;-57
2021/12/23 10:07:00;;;;;;;;;;;;;;;15.72;39.70;101109.38;5012578;28;19921;-57
2021/12/23 10:09:51;;;;;;;;;;;;;;;15.74;39.66;101110.06;5011454;28;19944;-57
2021/12/23 10:31:37;;;;;;;;;;;;;;;16.01;39.26;101065.91;5010823;28;19927;-57
2021/12/23 10:37:17;;;;;;;;;;;;;;;16.03;38.85;101063.91;5011137;28;19921;-57
2021/12/23 10:39:52;;;;;;;;;;;;;;;16.03;38.23;101058.56;5010799;28;20016;-57
2021/12/23 10:42:23;;;;;;;;;;;;;;;16.03;38.46;101058.56;5012735;28;20015;-56
2021/12/23 10:44:49;;;;;;;;;;;;;;;16.02;39.04;101056.88;5009183;28;19926;-56
2021/12/23 10:47:28;;;;;;;;;;;;;;;16.02;39.08;101046.19;5014360;28;20336;-58
2021/12/23 10:49:59;;;;;;;;;;;;;;;16.00;38.47;101048.13;5013367;28;19975;-58
2021/12/23 10:52:30;;;;;;;;;;;;;;;15.98;38.85;101047.44;5011565;28;19928;-58
2021/12/23 11:00:14;;;;;;;;;;;;;;;15.94;38.27;101044.19;5013508;28;20012;-57
2021/12/23 11:02:55;;;;;;;;;;;;;;;15.91;38.33;101036.44;5010886;28;19929;-57
2021/12/23 11:05:26;;;;;;;;;;;;;;;15.91;38.35;101036.44;5008407;28;19941;-58
2021/12/23 11:38:13;;;;;;;;;;;;;;;16.19;38.55;100993.88;5004905;28;20003;-59
2021/12/23 11:45:50;;;;;;;;;;;;;;;16.40;39.77;100967.00;5004657;28;20373;-59
2021/12/23 11:48:17;;;;;;;;;;;;;;;16.46;39.24;100959.28;5007581;28;19921;-59
2021/12/23 11:53:28;;;;;;;;;;;;;;;16.57;38.80;100955.63;5008207;28;19925;-59
2021/12/23 11:55:54;;;;;;;;;;;;;;;16.63;38.59;100946.19;5009076;28;19921;-59
2021/12/23 11:58:24;;;;;;;;;;;;;;;16.68;38.88;100943.91;5003677;28;19922;-59
2021/12/23 12:01:07;;;;;;;;;;;;;;;16.73;39.57;100931.00;5005875;28;20325;-59
2021/12/23 12:03:54;;;;;;;;;;;;;;;16.76;38.36;100915.50;5003782;28;19929;-59
2021/12/23 12:06:23;;;;;;;;;;;;;;;16.80;39.23;100909.84;5004373;28;20348;-59
2021/12/23 12:08:52;;;;;;;;;;;;;;;16.83;38.67;100898.84;5003749;28;19929;-59
2021/12/23 12:11:21;;;;;;;;;;;;;;;16.84;38.73;100895.19;5003683;28;19932;-59
2021/12/23 12:13:48;;;;;;;;;;;;;;;16.86;39.20;100898.56;5003784;28;19925;-59
2021/12/23 12:16:30;;;;;;;;;;;;;;;16.86;38.44;100890.53;5003736;28;20199;-58
2021/12/23 12:18:57;;;;;;;;;;;;;;;16.86;38.89;100885.19;5006744;28;22257;-58
2021/12/23 12:21:25;;;;;;;;;;;;;;;16.86;38.25;100882.50;5004594;28;19975;-58
2021/12/23 12:24:10;;;;;;;;;;;;;;;16.83;38.46;100872.94;5003554;28;20236;-58
2021/12/23 12:26:57;;;;;;;;;;;;;;;16.82;38.81;100870.41;5005586;28;19936;-58
2021/12/23 12:29:35;;;;;;;;;;;;;;;16.78;38.14;100872.53;5003607;28;19961;-58
2021/12/23 12:32:03;;;;;;;;;;;;;;;16.75;39.00;100868.28;5002724;28;20316;-57
2021/12/23 12:34:30;;;;;;;;;;;;;;;16.73;38.45;100867.59;5003859;28;19983;-58
2021/12/23 12:36:58;;;;;;;;;;;;;;;16.73;38.83;100848.88;5003243;28;20012;-58
2021/12/23 12:39:35;;;;;;;;;;;;;;;16.76;38.26;100853.06;5003834;28;20309;-58
2021/12/23 12:42:09;;;;;;;;;;;;;;;16.78;38.44;100849.28;5003479;28;20053;-58
2021/12/23 12:44:44;;;;;;;;;;;;;;;16.82;38.80;100841.81;5005877;28;19927;-58
2021/12/23 12:47:30;;;;;;;;;;;;;;;16.86;39.55;100847.72;5005358;28;19922;-58
2021/12/23 12:50:11;;;;;;;;;;;;;;;16.90;38.51;100852.63;5003275;28;20315;-59
2021/12/23 12:52:48;;;;;;;;;;;;;;;16.93;39.22;100844.31;5000720;28;19931;-60
2021/12/23 12:55:22;;;;;;;;;;;;;;;16.98;39.05;100838.50;5005799;28;19928;-59
2021/12/23 12:57:53;;;;;;;;;;;;;;;17.02;38.62;100845.25;5004933;28;19930;-59
2021/12/23 13:00:27;;;;;;;;;;;;;;;17.06;39.79;100854.69;4999631;28;19953;-58
2021/12/23 13:02:59;;;;;;;;;;;;;;;17.09;39.01;100846.34;5003777;28;20017;-59
2021/12/23 13:05:30;;;;;;;;;;;;;;;17.13;39.21;100857.63;5005536;28;19929;-59
2021/12/23 13:07:57;;;;;;;;;;;;;;;17.15;38.88;100856.47;5003991;28;19925;-58
2021/12/23 13:10:28;;;;;;;;;;;;;;;17.19;39.43;100854.34;5003284;28;20012;-59
2021/12/23 13:12:56;;;;;;;;;;;;;;;17.21;38.83;100863.94;5003138;28;20016;-58
2021/12/23 13:15:24;;;;;;;;;;;;;;;17.23;39.46;100845.84;5002243;28;20238;-60
2021/12/23 13:18:03;;;;;;;;;;;;;;;17.26;39.32;100850.94;5002871;28;20208;-58
2021/12/23 13:20:35;;;;;;;;;;;;;;;17.28;39.38;100853.44;5003629;28;19935;-58
2021/12/23 13:23:06;;;;;;;;;;;;;;;17.33;38.95;100844.97;5003684;28;19929;-58
2021/12/23 13:25:33;;;;;;;;;;;;;;;17.35;39.64;100834.94;5005855;28;19929;-59
2021/12/23 13:28:01;;;;;;;;;;;;;;;17.36;39.85;100817.88;5001885;28;19922;-57
2021/12/23 13:30:27;;;;;;;;;;;;;;;17.38;39.50;100827.47;5004402;28;19933;-59
2021/12/23 13:32:58;;;;;;;;;;;;;;;17.39;39.25;100813.06;5004870;28;20286;-59
2021/12/23 13:35:25;;;;;;;;;;;;;;;17.41;39.06;100805.72;5001969;28;20313;-59
2021/12/23 13:37:51;;;;;;;;;;;;;;;17.43;39.19;100797.53;5002969;28;19932;-59
2021/12/23 13:40:28;;;;;;;;;;;;;;;17.44;39.22;100792.00;5002874;28;19928;-59
2021/12/23 13:42:54;;;;;;;;;;;;;;;17.45;39.51;100803.59;5001823;28;19929;-59
2021/12/23 13:45:21;;;;;;;;;;;;;;;17.46;38.87;100821.34;5004016;28;19929;-59
2021/12/23 13:47:50;;;;;;;;;;;;;;;17.48;38.95;100836.25;5004445;28;19928;-59
2021/12/23 13:50:18;;;;;;;;;;;;;;;17.50;39.28;100828.09;5002204;28;19921;-59
2021/12/23 13:52:46;;;;;;;;;;;;;;;17.50;39.15;100831.63;5004695;28;20306;-59
2021/12/23 13:55:15;;;;;;;;;;;;;;;17.52;39.07;100826.09;5001657;28;19988;-59
2021/12/23 13:57:45;;;;;;;;;;;;;;;17.54;39.55;100817.91;5001864;28;19925;-59